createdAt,value
2018-11-28T00:01:29.411Z,14.80
2018-11-28T00:04:04.142Z,15.30
2018-11-28T00:06:38.834Z,14.70
2018-11-28T00:09:13.506Z,14.43
2018-11-28T00:11:48.333Z,17.20
2018-11-28T00:14:23.190Z,14.70
2018-11-28T00:16:57.890Z,16.13
2018-11-28T00:19:32.555Z,16.77
2018-11-28T00:22:07.661Z,15.63
2018-11-28T00:24:42.273Z,17.10
2018-11-28T00:27:17.009Z,16.07
2018-11-28T00:29:51.526Z,14.83
2018-11-28T00:32:25.963Z,17.17
2018-11-28T00:35:00.494Z,15.43
2018-11-28T00:37:35.215Z,15.70
2018-11-28T00:40:11.527Z,17.30
2018-11-28T00:42:46.388Z,15.67
2018-11-28T00:45:24.115Z,13.07
2018-11-28T00:47:58.902Z,13.03
2018-11-28T00:50:33.576Z,14.97
2018-11-28T00:53:08.579Z,15.07
2018-11-28T00:55:48.401Z,13.37
2018-11-28T00:58:17.051Z,14.40
2018-11-28T01:00:51.384Z,16.30
2018-11-28T01:03:26.488Z,13.33
2018-11-28T01:06:00.643Z,14.60
2018-11-28T01:08:34.915Z,14.07
2018-11-28T01:11:09.351Z,15.13
2018-11-28T01:13:44.483Z,12.20
2018-11-28T01:16:19.463Z,17.70
2018-11-28T01:18:54.295Z,15.23
2018-11-28T01:21:29.216Z,16.40
2018-11-28T01:24:03.391Z,14.40
2018-11-28T01:26:37.991Z,16.60
2018-11-28T01:29:12.618Z,15.63
2018-11-28T01:31:47.261Z,14.37
2018-11-28T01:34:21.819Z,13.07
2018-11-28T01:36:56.435Z,12.97
2018-11-28T01:39:31.228Z,13.00
2018-11-28T01:42:05.851Z,14.20
2018-11-28T01:44:40.432Z,14.80
2018-11-28T01:47:15.176Z,16.37
2018-11-28T01:49:49.671Z,13.57
2018-11-28T01:52:24.197Z,14.27
2018-11-28T01:54:59.405Z,13.00
2018-11-28T01:57:34.583Z,14.63
2018-11-28T02:00:19.171Z,12.20
2018-11-28T02:02:56.035Z,14.07
2018-11-28T02:05:30.355Z,17.20
2018-11-28T02:08:05.383Z,19.03
2018-11-28T02:10:39.624Z,14.33
2018-11-28T02:13:13.960Z,15.40
2018-11-28T02:15:48.267Z,14.27
2018-11-28T02:18:22.580Z,17.83
2018-11-28T02:20:56.877Z,15.10
2018-11-28T02:23:31.910Z,16.17
2018-11-28T02:26:06.370Z,13.57
2018-11-28T02:28:41.334Z,13.63
2018-11-28T02:31:16.114Z,12.93
2018-11-28T02:33:50.816Z,13.40
2018-11-28T02:36:25.331Z,18.53
2018-11-28T02:38:59.920Z,15.40
2018-11-28T02:41:34.641Z,17.80
2018-11-28T02:44:09.336Z,18.03
2018-11-28T02:46:44.063Z,15.20
2018-11-28T02:49:18.758Z,14.73
2018-11-28T02:51:53.500Z,14.37
2018-11-28T02:54:27.960Z,12.20
2018-11-28T02:57:02.737Z,14.03
2018-11-28T02:59:37.358Z,9.90
2018-11-28T03:02:11.907Z,11.70
2018-11-28T03:04:46.900Z,9.43
2018-11-28T03:07:21.264Z,9.53
2018-11-28T03:09:56.075Z,9.13
2018-11-28T03:12:30.836Z,9.17
2018-11-28T03:15:07.034Z,8.37
2018-11-28T03:17:41.674Z,9.20
2018-11-28T03:20:16.528Z,10.10
2018-11-28T03:22:51.514Z,10.40
2018-11-28T03:25:26.430Z,8.70
2018-11-28T03:28:01.020Z,8.50
2018-11-28T03:30:35.817Z,8.57
2018-11-28T03:33:10.225Z,7.57
2018-11-28T03:35:45.291Z,6.97
2018-11-28T03:38:20.450Z,6.73
2018-11-28T03:40:55.231Z,9.53
2018-11-28T03:43:29.817Z,6.53
2018-11-28T03:46:04.819Z,8.30
2018-11-28T03:48:38.909Z,7.53
2018-11-28T03:51:13.643Z,6.47
2018-11-28T03:53:48.146Z,9.10
2018-11-28T03:56:22.630Z,6.80
2018-11-28T03:58:57.362Z,8.33
2018-11-28T04:01:31.995Z,8.13
2018-11-28T04:04:06.591Z,8.73
2018-11-28T04:06:41.263Z,10.63
2018-11-28T04:09:16.099Z,7.60
2018-11-28T04:11:50.896Z,8.70
2018-11-28T04:14:25.518Z,10.20
2018-11-28T04:17:00.590Z,10.13
2018-11-28T04:19:34.863Z,7.60
2018-11-28T04:22:09.096Z,8.93
2018-11-28T04:24:43.220Z,10.00
2018-11-28T04:27:17.499Z,8.30
2018-11-28T04:29:51.848Z,10.03
2018-11-28T04:32:26.868Z,6.97
2018-11-28T04:35:01.101Z,8.93
2018-11-28T04:37:35.728Z,10.43
2018-11-28T04:40:13.109Z,8.37
2018-11-28T04:42:48.637Z,9.60
2018-11-28T04:45:24.286Z,8.83
2018-11-28T04:47:59.092Z,10.03
2018-11-28T04:50:33.640Z,12.03
2018-11-28T04:53:08.299Z,8.20
2018-11-28T04:55:42.952Z,10.77
2018-11-28T04:58:17.487Z,7.83
2018-11-28T05:00:52.142Z,8.30
2018-11-28T05:03:26.788Z,9.90
2018-11-28T05:06:01.420Z,9.30
2018-11-28T05:08:35.880Z,10.03
2018-11-28T05:11:10.622Z,9.87
2018-11-28T05:13:45.283Z,8.40
2018-11-28T05:16:19.752Z,10.67
2018-11-28T05:18:54.380Z,10.27
2018-11-28T05:21:28.968Z,9.13
2018-11-28T05:24:03.636Z,12.57
2018-11-28T05:26:38.271Z,11.63
2018-11-28T05:29:13.400Z,13.77
2018-11-28T05:31:47.647Z,15.50
2018-11-28T05:34:21.787Z,17.40
2018-11-28T05:36:56.915Z,15.40
2018-11-28T05:39:31.239Z,16.77
2018-11-28T05:42:05.608Z,14.67
2018-11-28T05:44:40.699Z,15.87
2018-11-28T05:47:15.494Z,11.20
2018-11-28T05:49:50.599Z,15.90
2018-11-28T05:52:25.263Z,12.30
2018-11-28T05:54:59.475Z,15.73
2018-11-28T05:57:33.795Z,12.90
2018-11-28T06:00:18.500Z,16.47
2018-11-28T06:02:53.241Z,17.40
2018-11-28T06:05:28.211Z,21.27
2018-11-28T06:08:02.719Z,34.70
2018-11-28T06:10:37.319Z,27.80
2018-11-28T06:13:11.883Z,28.80
2018-11-28T06:15:46.637Z,29.57
2018-11-28T06:18:21.066Z,29.73
2018-11-28T06:20:55.819Z,28.23
2018-11-28T06:23:30.367Z,25.87
2018-11-28T06:26:05.328Z,31.60
2018-11-28T06:28:39.852Z,32.80
2018-11-28T06:31:14.500Z,42.00
2018-11-28T06:33:49.047Z,35.87
2018-11-28T06:36:23.693Z,35.03
2018-11-28T06:38:58.136Z,32.10
2018-11-28T06:41:32.776Z,38.60
2018-11-28T06:44:07.485Z,40.13
2018-11-28T06:46:42.166Z,44.60
2018-11-28T06:49:16.662Z,39.87
2018-11-28T06:51:51.300Z,32.83
2018-11-28T06:54:25.896Z,35.57
2018-11-28T06:57:00.496Z,36.03
2018-11-28T06:59:35.317Z,34.57
2018-11-28T07:02:09.851Z,37.80
2018-11-28T07:04:44.555Z,34.53
2018-11-28T07:07:19.607Z,36.37
2018-11-28T07:09:54.227Z,37.90
2018-11-28T07:12:28.762Z,34.93
2018-11-28T07:15:03.714Z,35.30
2018-11-28T07:17:39.147Z,36.33
2018-11-28T07:20:15.203Z,32.13
2018-11-28T07:22:49.442Z,40.67
2018-11-28T07:25:24.039Z,37.13
2018-11-28T07:27:58.706Z,49.17
2018-11-28T07:30:37.627Z,38.00
2018-11-28T07:33:08.859Z,33.37
2018-11-28T07:35:43.589Z,36.17
2018-11-28T07:38:18.219Z,35.00
2018-11-28T07:40:52.876Z,33.70
2018-11-28T07:43:27.569Z,34.50
2018-11-28T07:46:02.227Z,30.50
2018-11-28T07:48:36.659Z,34.53
2018-11-28T07:51:11.339Z,34.47
2018-11-28T07:53:46.077Z,31.73
2018-11-28T07:56:20.630Z,32.77
2018-11-28T07:58:55.387Z,33.07
2018-11-28T08:01:30.251Z,26.30
2018-11-28T08:04:05.371Z,34.80
2018-11-28T08:06:39.488Z,33.23
2018-11-28T08:09:14.110Z,37.50
2018-11-28T08:11:48.775Z,36.53
2018-11-28T08:14:23.423Z,39.53
2018-11-28T08:16:58.179Z,42.20
2018-11-28T08:19:32.747Z,36.00
2018-11-28T08:22:07.454Z,39.87
2018-11-28T08:24:41.956Z,36.27
2018-11-28T08:27:16.678Z,33.60
2018-11-28T08:29:51.104Z,35.17
2018-11-28T08:32:25.810Z,37.77
2018-11-28T08:35:00.480Z,33.93
2018-11-28T08:37:35.251Z,34.90
2018-11-28T08:40:13.451Z,35.93
2018-11-28T08:42:48.544Z,45.93
2018-11-28T08:45:23.037Z,39.53
2018-11-28T08:47:58.537Z,35.30
2018-11-28T08:50:36.886Z,32.93
2018-11-28T08:53:11.666Z,26.53
2018-11-28T08:55:46.495Z,34.07
2018-11-28T08:58:20.977Z,37.13
2018-11-28T09:00:55.504Z,36.90
2018-11-28T09:03:30.006Z,34.70
2018-11-28T09:06:05.427Z,39.53
2018-11-28T09:08:40.321Z,33.93
2018-11-28T09:11:14.797Z,35.80
2018-11-28T09:13:50.896Z,37.47
2018-11-28T09:16:25.145Z,37.03
2018-11-28T09:19:00.080Z,32.17
2018-11-28T09:21:34.538Z,36.43
2018-11-28T09:24:09.081Z,33.17
2018-11-28T09:26:43.796Z,30.20
2018-11-28T09:29:18.580Z,31.60
2018-11-28T09:31:53.348Z,37.27
2018-11-28T09:34:28.059Z,36.77
2018-11-28T09:37:02.610Z,36.10
2018-11-28T09:39:37.467Z,32.53
2018-11-28T09:42:12.190Z,32.40
2018-11-28T09:44:46.889Z,32.07
2018-11-28T09:47:21.541Z,31.63
2018-11-28T09:49:56.339Z,28.20
2018-11-28T09:52:30.991Z,26.63
2018-11-28T09:55:14.592Z,28.03
2018-11-28T09:57:49.746Z,26.03
2018-11-28T10:00:25.680Z,28.23
2018-11-28T10:03:01.312Z,29.93
2018-11-28T10:05:35.541Z,30.80
2018-11-28T10:08:10.192Z,29.17
2018-11-28T10:10:44.709Z,26.87
2018-11-28T10:13:20.242Z,33.90
2018-11-28T10:15:55.319Z,31.37
2018-11-28T10:18:29.900Z,32.03
2018-11-28T10:21:04.781Z,26.97
2018-11-28T10:23:39.263Z,27.87
2018-11-28T10:26:14.138Z,27.97
2018-11-28T10:28:48.729Z,31.23
2018-11-28T10:31:23.397Z,35.07
2018-11-28T10:33:58.434Z,31.67
2018-11-28T10:36:32.911Z,31.13
2018-11-28T10:39:08.915Z,34.63
2018-11-28T10:41:43.480Z,30.17
2018-11-28T10:44:18.209Z,30.63
2018-11-28T10:46:52.929Z,32.90
2018-11-28T10:49:27.593Z,33.17
2018-11-28T10:52:02.285Z,34.77
2018-11-28T10:54:37.119Z,43.23
2018-11-28T10:57:11.851Z,30.63
2018-11-28T10:59:46.291Z,36.07
2018-11-28T11:02:26.468Z,34.67
2018-11-28T11:05:07.187Z,37.70
2018-11-28T11:07:47.904Z,32.93
2018-11-28T11:10:28.546Z,32.20
2018-11-28T11:13:09.268Z,36.30
2018-11-28T11:15:50.827Z,46.80
2018-11-28T11:18:26.118Z,38.47
2018-11-28T11:21:00.758Z,37.97
2018-11-28T11:23:35.375Z,38.73
2018-11-28T11:26:09.928Z,32.70
2018-11-28T11:28:44.700Z,49.60
2018-11-28T11:31:19.313Z,36.90
2018-11-28T11:33:54.025Z,29.50
2018-11-28T11:36:28.694Z,33.17
2018-11-28T11:39:04.977Z,36.23
2018-11-28T11:41:40.124Z,35.13
2018-11-28T11:44:14.718Z,36.80
2018-11-28T11:46:49.090Z,37.30
2018-11-28T11:49:23.636Z,37.40
2018-11-28T11:51:58.223Z,32.87
2018-11-28T11:54:33.037Z,33.63
2018-11-28T11:57:07.603Z,33.13
2018-11-28T11:59:42.311Z,31.80
2018-11-28T12:02:16.850Z,37.20
2018-11-28T12:04:51.880Z,38.33
2018-11-28T12:07:26.422Z,35.93
2018-11-28T12:10:01.240Z,36.30
2018-11-28T12:12:35.990Z,41.63
2018-11-28T12:15:15.217Z,41.40
2018-11-28T12:17:50.032Z,35.93
2018-11-28T12:21:29.487Z,39.77
2018-11-28T12:24:07.603Z,40.80
2018-11-28T12:26:42.604Z,37.90
2018-11-28T12:29:17.756Z,40.67
2018-11-28T12:31:52.422Z,41.57
2018-11-28T12:34:26.980Z,41.83
2018-11-28T12:37:01.776Z,36.27
2018-11-28T12:39:36.512Z,40.70
2018-11-28T12:42:11.335Z,39.40
2018-11-28T12:44:46.267Z,40.83
2018-11-28T12:47:21.079Z,33.43
2018-11-28T12:49:55.775Z,41.70
2018-11-28T12:52:30.477Z,44.27
2018-11-28T12:55:06.363Z,38.13
2018-11-28T12:57:40.823Z,36.67
2018-11-28T13:00:20.329Z,35.87
2018-11-28T13:02:55.299Z,35.57
2018-11-28T13:05:29.770Z,39.43
2018-11-28T13:08:04.770Z,38.20
2018-11-28T13:10:40.359Z,37.10
2018-11-28T13:13:14.876Z,39.77
2018-11-28T13:15:49.046Z,40.20
2018-11-28T13:18:23.749Z,43.60
2018-11-28T13:20:58.455Z,38.80
2018-11-28T13:23:32.975Z,47.00
2018-11-28T13:26:07.629Z,37.87
2018-11-28T13:28:42.359Z,43.50
2018-11-28T13:31:16.936Z,39.60
2018-11-28T13:33:51.688Z,40.43
2018-11-28T13:36:26.177Z,35.50
2018-11-28T13:39:00.812Z,39.13
2018-11-28T13:41:35.842Z,35.20
2018-11-28T13:44:10.834Z,37.73
2018-11-28T13:46:45.404Z,41.83
2018-11-28T13:49:20.280Z,36.77
2018-11-28T13:51:55.457Z,39.70
2018-11-28T13:54:30.421Z,37.90
2018-11-28T13:57:07.147Z,38.10
2018-11-28T13:59:40.832Z,32.73
2018-11-28T14:02:14.836Z,37.07
2018-11-28T14:04:51.570Z,39.67
2018-11-28T14:07:26.323Z,38.83
2018-11-28T14:10:01.265Z,42.63
2018-11-28T14:12:35.597Z,44.20
2018-11-28T14:15:14.004Z,44.20
2018-11-28T14:17:56.395Z,39.00
2018-11-28T14:20:30.686Z,42.50
2018-11-28T14:23:05.523Z,41.33
2018-11-28T14:25:40.123Z,49.13
2018-11-28T14:28:14.922Z,46.47
2018-11-28T14:30:49.554Z,44.53
2018-11-28T14:33:24.142Z,40.77
2018-11-28T14:35:59.017Z,48.10
2018-11-28T14:38:33.527Z,44.80
2018-11-28T14:41:08.306Z,47.90
2018-11-28T14:43:43.148Z,50.13
2018-11-28T14:46:17.800Z,43.50
2018-11-28T14:48:52.242Z,39.07
2018-11-28T14:51:26.997Z,36.83
2018-11-28T14:54:01.403Z,45.80
2018-11-28T14:56:35.855Z,41.10
2018-11-28T14:59:10.534Z,45.53
2018-11-28T15:01:45.136Z,42.30
2018-11-28T15:04:19.756Z,36.23
2018-11-28T15:07:01.994Z,37.33
2018-11-28T15:09:43.029Z,34.27
2018-11-28T15:12:17.908Z,40.70
2018-11-28T15:14:52.555Z,48.57
2018-11-28T15:17:27.179Z,35.60
2018-11-28T15:20:02.078Z,36.97
2018-11-28T15:22:36.517Z,47.93
2018-11-28T15:25:11.292Z,47.30
2018-11-28T15:27:46.073Z,41.50
2018-11-28T15:30:20.800Z,47.10
2018-11-28T15:32:55.416Z,41.37
2018-11-28T15:35:29.982Z,40.37
2018-11-28T15:38:04.914Z,36.43
2018-11-28T15:40:39.630Z,38.27
2018-11-28T15:43:14.410Z,32.50
2018-11-28T15:45:49.228Z,32.57
2018-11-28T15:48:23.887Z,38.37
2018-11-28T15:50:58.379Z,33.67
2018-11-28T15:53:33.245Z,30.17
2018-11-28T15:56:07.674Z,35.67
2018-11-28T15:58:42.172Z,34.00
2018-11-28T16:01:17.007Z,30.50
2018-11-28T16:03:51.889Z,30.80
2018-11-28T16:06:26.435Z,30.37
2018-11-28T16:09:01.360Z,30.87
2018-11-28T16:11:35.744Z,33.40
2018-11-28T16:14:10.517Z,28.23
2018-11-28T16:16:44.908Z,33.63
2018-11-28T16:19:19.856Z,35.50
2018-11-28T16:21:54.323Z,31.87
2018-11-28T16:24:28.987Z,36.90
2018-11-28T16:27:03.666Z,35.63
2018-11-28T16:29:38.363Z,34.50
2018-11-28T16:32:13.007Z,35.40
2018-11-28T16:34:47.848Z,41.57
2018-11-28T16:37:22.233Z,41.03
2018-11-28T16:39:56.903Z,34.80
2018-11-28T16:42:31.610Z,32.70
2018-11-28T16:45:13.384Z,34.73
2018-11-28T16:47:48.654Z,32.57
2018-11-28T16:50:22.999Z,36.63
2018-11-28T16:52:57.884Z,35.27
2018-11-28T16:55:32.288Z,42.37
2018-11-28T16:58:07.793Z,40.90
2018-11-28T17:00:43.868Z,39.83
2018-11-28T17:03:18.357Z,36.60
2018-11-28T17:05:52.982Z,36.77
2018-11-28T17:08:27.475Z,37.60
2018-11-28T17:11:02.321Z,34.53
2018-11-28T17:13:37.276Z,33.60
2018-11-28T17:16:11.579Z,36.13
2018-11-28T17:18:46.127Z,43.50
2018-11-28T17:21:20.699Z,38.20
2018-11-28T17:23:55.401Z,37.57
2018-11-28T17:26:30.008Z,33.40
2018-11-28T17:29:05.217Z,35.27
2018-11-28T17:31:39.523Z,34.00
2018-11-28T17:34:14.223Z,35.83
2018-11-28T17:36:49.037Z,35.00
2018-11-28T17:39:23.585Z,41.00
2018-11-28T17:41:58.319Z,36.20
2018-11-28T17:44:33.131Z,38.50
2018-11-28T17:47:07.664Z,35.00
2018-11-28T17:49:42.220Z,41.43
2018-11-28T17:52:17.172Z,37.57
2018-11-28T17:54:51.763Z,38.67
2018-11-28T17:57:26.365Z,35.53
2018-11-28T18:00:00.935Z,43.87
2018-11-28T18:02:35.939Z,38.57
2018-11-28T18:05:11.071Z,43.50
2018-11-28T18:07:45.225Z,47.03
2018-11-28T18:10:21.108Z,44.07
2018-11-28T18:13:04.162Z,40.80
2018-11-28T18:15:41.726Z,43.47
2018-11-28T18:18:19.012Z,43.10
2018-11-28T18:20:53.335Z,42.07
2018-11-28T18:23:28.096Z,39.10
2018-11-28T18:26:06.980Z,36.83
2018-11-28T18:28:41.232Z,49.67
2018-11-28T18:31:16.173Z,41.13
2018-11-28T18:33:50.561Z,46.03
2018-11-28T18:36:25.375Z,37.97
2018-11-28T18:39:00.020Z,44.00
2018-11-28T18:41:35.023Z,46.20
2018-11-28T18:44:09.679Z,42.80
2018-11-28T18:46:44.435Z,40.00
2018-11-28T18:49:18.700Z,42.97
2018-11-28T18:51:53.415Z,44.50
2018-11-28T18:54:27.909Z,46.83
2018-11-28T18:57:03.032Z,43.87
2018-11-28T18:59:37.353Z,51.17
2018-11-28T19:02:12.057Z,45.23
2018-11-28T19:04:46.724Z,44.63
2018-11-28T19:07:21.359Z,48.83
2018-11-28T19:09:55.978Z,49.80
2018-11-28T19:12:30.991Z,48.87
2018-11-28T19:15:09.809Z,39.67
2018-11-28T19:17:45.731Z,51.30
2018-11-28T19:20:21.840Z,46.97
2018-11-28T19:22:57.100Z,43.83
2018-11-28T19:25:32.301Z,43.73
2018-11-28T19:28:07.022Z,50.80
2018-11-28T19:30:42.714Z,42.67
2018-11-28T19:33:18.575Z,46.00
2018-11-28T19:35:54.444Z,48.93
2018-11-28T19:38:30.043Z,48.47
2018-11-28T19:41:10.420Z,49.17
2018-11-28T19:43:46.363Z,50.20
2018-11-28T19:46:23.270Z,46.90
2018-11-28T19:48:59.591Z,49.37
2018-11-28T19:51:37.223Z,47.07
2018-11-28T19:54:14.951Z,45.20
2018-11-28T19:56:52.889Z,46.30
2018-11-28T19:59:30.170Z,40.67
2018-11-28T20:02:08.160Z,47.60
2018-11-28T20:04:46.780Z,44.60
2018-11-28T20:07:24.263Z,47.03
2018-11-28T20:10:02.139Z,38.50
2018-11-28T20:12:40.280Z,40.53
2018-11-28T20:15:24.002Z,42.83
2018-11-28T20:18:01.249Z,40.20
2018-11-28T20:20:38.614Z,45.60
2018-11-28T20:23:16.314Z,37.20
2018-11-28T20:25:54.306Z,41.87
2018-11-28T20:28:32.565Z,36.33
2018-11-28T20:31:09.811Z,40.40
2018-11-28T20:33:47.527Z,45.80
2018-11-28T20:36:25.180Z,45.13
2018-11-28T20:39:02.989Z,42.60
2018-11-28T20:41:40.482Z,41.87
2018-11-28T20:44:18.567Z,47.20
2018-11-28T20:46:56.531Z,46.23
2018-11-28T20:49:34.949Z,43.33
2018-11-28T20:52:12.913Z,42.73
2018-11-28T20:54:50.457Z,38.90
2018-11-28T20:57:28.189Z,47.03
2018-11-28T21:00:11.918Z,44.10
2018-11-28T21:02:49.481Z,46.13
2018-11-28T21:05:27.453Z,51.53
2018-11-28T21:08:05.019Z,50.30
2018-11-28T21:10:42.866Z,43.00
2018-11-28T21:13:20.079Z,45.53
2018-11-28T21:15:57.975Z,45.40
2018-11-28T21:18:35.154Z,45.67
2018-11-28T21:21:11.754Z,47.20
2018-11-28T21:23:48.987Z,44.80
2018-11-28T21:26:24.933Z,51.83
2018-11-28T21:29:00.137Z,42.80
2018-11-28T21:31:36.622Z,50.23
2018-11-28T21:34:12.297Z,38.70
2018-11-28T21:36:47.840Z,39.40
2018-11-28T21:39:22.295Z,39.10
2018-11-28T21:41:57.047Z,41.87
2018-11-28T21:44:31.546Z,45.67
2018-11-28T21:47:06.698Z,40.07
2018-11-28T21:49:41.211Z,41.27
2018-11-28T21:52:15.562Z,43.70
2018-11-28T21:54:50.246Z,35.80
2018-11-28T21:57:25.113Z,37.53
2018-11-28T21:59:59.783Z,38.73
2018-11-28T22:02:34.371Z,44.67
2018-11-28T22:05:11.004Z,45.27
2018-11-28T22:07:45.864Z,40.77
2018-11-28T22:10:23.979Z,40.53
2018-11-28T22:12:58.943Z,42.87
2018-11-28T22:15:33.774Z,35.90
2018-11-28T22:18:08.650Z,43.60
2018-11-28T22:20:43.129Z,41.03
2018-11-28T22:23:17.970Z,41.93
2018-11-28T22:25:52.626Z,39.50
2018-11-28T22:28:27.216Z,41.27
2018-11-28T22:31:02.164Z,40.80
2018-11-28T22:33:37.119Z,44.60
2018-11-28T22:36:11.843Z,40.17
2018-11-28T22:38:46.476Z,42.03
2018-11-28T22:41:21.209Z,40.10
2018-11-28T22:43:55.931Z,43.90
2018-11-28T22:46:30.475Z,40.10
2018-11-28T22:49:04.756Z,39.43
2018-11-28T22:51:39.378Z,38.80
2018-11-28T22:54:13.886Z,40.80
2018-11-28T22:56:48.378Z,44.43
2018-11-28T22:59:23.141Z,39.10
2018-11-28T23:03:03.106Z,35.60
2018-11-28T23:05:43.726Z,36.37
2018-11-28T23:08:20.043Z,36.47
2018-11-28T23:10:54.863Z,34.77
2018-11-28T23:13:28.978Z,33.90
2018-11-28T23:16:03.948Z,36.83
2018-11-28T23:18:38.123Z,33.80
2018-11-28T23:21:14.451Z,44.87
2018-11-28T23:23:48.715Z,40.00
2018-11-28T23:26:23.384Z,47.60
2018-11-28T23:28:58.248Z,39.10
2018-11-28T23:31:33.047Z,46.20
2018-11-28T23:34:07.641Z,38.07
2018-11-28T23:36:42.384Z,46.00
2018-11-28T23:39:17.005Z,41.93
2018-11-28T23:41:51.548Z,38.90
2018-11-28T23:44:26.197Z,39.73
2018-11-28T23:47:00.875Z,68.17
2018-11-28T23:49:35.631Z,43.40
2018-11-28T23:52:10.281Z,39.43
2018-11-28T23:54:44.795Z,36.60
2018-11-28T23:57:19.723Z,42.33
2018-11-28T23:59:54.303Z,39.03
